Time;durP1;ratioP1;P1;durP2;ratioP2;P2;SDS_P1;SDS_P2;PMS_P1;PMS_P2;Temp;Humidity;BMP_temperature;BMP_pressure;BME280_temperature;BME280_humidity;BME280_pressure;Samples;Min_cycle;Max_cycle;Signal;HPM_P1;HPM_P2
2024/02/18 00:01:37;;;;;;;18.65;6.57;;;;;;;;;;5073596;28;20460;-39
2024/02/18 00:04:02;;;;;;;18.35;7.18;;;;;;;;;;5073912;28;20050;-38
2024/02/18 00:06:27;;;;;;;22.42;6.05;;;;;;;;;;5073489;28;20400;-38
2024/02/18 00:08:53;;;;;;;16.57;5.73;;;;;;;;;;5073870;28;20020;-38
2024/02/18 00:11:18;;;;;;;11.00;4.60;;;;;;;;;;5074018;28;20055;-38
2024/02/18 00:13:43;;;;;;;14.23;4.70;;;;;;;;;;5073485;28;20016;-39
2024/02/18 00:16:08;;;;;;;12.27;4.47;;;;;;;;;;5072744;28;20028;-38
2024/02/18 00:18:33;;;;;;;15.93;4.90;;;;;;;;;;5072138;28;20471;-38
2024/02/18 00:20:58;;;;;;;18.80;4.50;;;;;;;;;;5073995;28;20021;-38
2024/02/18 00:23:24;;;;;;;10.73;4.43;;;;;;;;;;5073560;28;20376;-39
2024/02/18 00:25:49;;;;;;;12.65;4.20;;;;;;;;;;5073313;28;20482;-38
2024/02/18 00:28:14;;;;;;;9.77;4.00;;;;;;;;;;5072501;28;20013;-38
2024/02/18 00:30:40;;;;;;;16.23;4.38;;;;;;;;;;5073841;28;20095;-38
2024/02/18 00:33:05;;;;;;;11.98;4.47;;;;;;;;;;5073611;28;20066;-38
2024/02/18 00:35:30;;;;;;;14.30;4.25;;;;;;;;;;5073870;28;20475;-39
2024/02/18 00:37:55;;;;;;;12.40;4.43;;;;;;;;;;5073306;28;20097;-39
2024/02/18 00:40:21;;;;;;;15.57;4.47;;;;;;;;;;5072604;28;20362;-39
2024/02/18 00:42:46;;;;;;;21.50;4.40;;;;;;;;;;5073224;28;20267;-39
2024/02/18 00:45:12;;;;;;;12.23;4.33;;;;;;;;;;5073208;28;20066;-39
2024/02/18 00:47:38;;;;;;;10.63;4.15;;;;;;;;;;5073344;28;20286;-38
2024/02/18 00:50:03;;;;;;;15.37;4.77;;;;;;;;;;5073176;28;20020;-38
2024/02/18 00:52:28;;;;;;;9.10;4.63;;;;;;;;;;5073056;28;20289;-38
2024/02/18 00:54:53;;;;;;;12.60;4.33;;;;;;;;;;5076466;28;20025;-39
2024/02/18 00:57:19;;;;;;;14.20;5.00;;;;;;;;;;5077008;28;20595;-38
2024/02/18 00:59:44;;;;;;;10.82;4.38;;;;;;;;;;5077373;28;20009;-38
2024/02/18 01:02:09;;;;;;;14.03;4.20;;;;;;;;;;5077046;28;20025;-38
2024/02/18 01:04:34;;;;;;;10.57;4.43;;;;;;;;;;5077427;28;20327;-38
2024/02/18 01:06:59;;;;;;;14.20;4.17;;;;;;;;;;5076731;28;20041;-38
2024/02/18 01:09:25;;;;;;;11.03;4.57;;;;;;;;;;5077222;28;20243;-38
2024/02/18 01:11:50;;;;;;;13.83;4.33;;;;;;;;;;5077045;28;20261;-38
2024/02/18 01:14:16;;;;;;;13.23;4.13;;;;;;;;;;5077014;28;20636;-38
2024/02/18 01:16:41;;;;;;;12.50;4.35;;;;;;;;;;5076762;28;20375;-38
2024/02/18 01:19:06;;;;;;;10.20;4.43;;;;;;;;;;5076974;28;20459;-38
2024/02/18 01:21:31;;;;;;;20.58;5.40;;;;;;;;;;5076625;28;20024;-38
2024/02/18 01:23:56;;;;;;;13.03;4.40;;;;;;;;;;5077017;28;20028;-38
2024/02/18 01:26:22;;;;;;;12.57;4.32;;;;;;;;;;5076811;28;20263;-38
2024/02/18 01:28:47;;;;;;;12.17;4.33;;;;;;;;;;5076441;28;20012;-38
2024/02/18 01:31:12;;;;;;;14.03;4.70;;;;;;;;;;5076460;28;20271;-38
2024/02/18 01:33:37;;;;;;;16.42;4.78;;;;;;;;;;5076634;28;20247;-38
2024/02/18 01:36:03;;;;;;;12.85;4.20;;;;;;;;;;5076378;28;20123;-38
2024/02/18 01:38:28;;;;;;;17.25;4.45;;;;;;;;;;5076621;28;20043;-38
2024/02/18 01:40:53;;;;;;;12.13;3.80;;;;;;;;;;5076775;28;20020;-38
2024/02/18 01:43:18;;;;;;;13.73;4.45;;;;;;;;;;5076752;28;20330;-38
2024/02/18 01:45:45;;;;;;;17.88;4.53;;;;;;;;;;5076028;28;20441;-38
2024/02/18 01:48:11;;;;;;;8.63;4.03;;;;;;;;;;5076378;28;20020;-38
2024/02/18 01:50:36;;;;;;;16.95;4.05;;;;;;;;;;5076646;28;20096;-38
2024/02/18 01:53:01;;;;;;;11.53;4.33;;;;;;;;;;5076093;28;20048;-38
2024/02/18 01:55:27;;;;;;;10.88;3.78;;;;;;;;;;5076053;28;20313;-38
2024/02/18 01:57:52;;;;;;;8.70;3.87;;;;;;;;;;5076243;28;20463;-37
2024/02/18 02:00:17;;;;;;;16.50;4.05;;;;;;;;;;5075938;28;20266;-38
2024/02/18 02:02:43;;;;;;;9.27;3.67;;;;;;;;;;5076478;28;20021;-38
2024/02/18 02:05:11;;;;;;;9.27;3.67;;;;;;;;;;5074568;28;20016;-37
2024/02/18 02:07:36;;;;;;;10.40;4.22;;;;;;;;;;5075555;28;20040;-38
2024/02/18 02:10:02;;;;;;;12.45;3.92;;;;;;;;;;5075771;28;20039;-38
2024/02/18 02:12:27;;;;;;;7.22;3.50;;;;;;;;;;5075917;28;20455;-38
2024/02/18 02:14:52;;;;;;;14.27;3.97;;;;;;;;;;5074488;28;20025;-38
2024/02/18 02:17:18;;;;;;;10.45;3.40;;;;;;;;;;5075695;28;20305;-38
2024/02/18 02:19:43;;;;;;;11.85;3.85;;;;;;;;;;5075857;28;20077;-38
2024/02/18 02:22:08;;;;;;;14.82;4.32;;;;;;;;;;5075526;28;20017;-38
2024/02/18 02:24:33;;;;;;;11.60;3.50;;;;;;;;;;5075447;28;20463;-38
2024/02/18 02:27:00;;;;;;;13.07;3.80;;;;;;;;;;5075518;28;20017;-38
2024/02/18 02:29:25;;;;;;;16.23;4.80;;;;;;;;;;5075925;28;20247;-38
2024/02/18 02:31:51;;;;;;;9.02;3.58;;;;;;;;;;5075359;28;20051;-38
2024/02/18 02:34:16;;;;;;;9.40;3.70;;;;;;;;;;5075291;28;20024;-37
2024/02/18 02:36:41;;;;;;;12.65;3.75;;;;;;;;;;5075311;28;20105;-38
2024/02/18 02:39:12;;;;;;;10.35;4.20;;;;;;;;;;5075164;28;20009;-38
2024/02/18 02:41:38;;;;;;;12.73;3.72;;;;;;;;;;5075222;28;20095;-38
2024/02/18 02:44:03;;;;;;;7.97;3.88;;;;;;;;;;5074993;28;20103;-38
2024/02/18 02:46:28;;;;;;;11.40;3.50;;;;;;;;;;5075151;28;20147;-38
2024/02/18 02:48:53;;;;;;;12.55;3.70;;;;;;;;;;5075006;28;20542;-38
2024/02/18 02:51:19;;;;;;;10.13;3.60;;;;;;;;;;5075046;28;20487;-38
2024/02/18 02:53:44;;;;;;;13.15;4.20;;;;;;;;;;5075174;28;20251;-38
2024/02/18 02:56:09;;;;;;;10.23;3.95;;;;;;;;;;5074888;28;20024;-38
2024/02/18 02:58:34;;;;;;;11.83;4.10;;;;;;;;;;5075307;28;20021;-38
2024/02/18 03:01:00;;;;;;;6.83;3.57;;;;;;;;;;5074695;28;20317;-38
2024/02/18 03:03:25;;;;;;;12.40;4.17;;;;;;;;;;5074679;28;20334;-38
2024/02/18 03:05:50;;;;;;;10.17;3.67;;;;;;;;;;5073443;28;20282;-38
2024/02/18 03:08:16;;;;;;;11.73;3.30;;;;;;;;;;5074643;28;20352;-38
2024/02/18 03:10:42;;;;;;;11.60;4.75;;;;;;;;;;5074887;28;20649;-38
2024/02/18 03:13:07;;;;;;;11.38;3.60;;;;;;;;;;5074732;28;20016;-38
2024/02/18 03:15:32;;;;;;;8.03;3.40;;;;;;;;;;5074774;28;20491;-39
2024/02/18 03:17:58;;;;;;;11.90;3.97;;;;;;;;;;5074014;28;20255;-38
2024/02/18 03:20:23;;;;;;;10.87;3.60;;;;;;;;;;5074357;28;20281;-38
2024/02/18 03:22:49;;;;;;;9.55;3.40;;;;;;;;;;5056518;28;20278;-38
2024/02/18 03:25:15;;;;;;;12.50;3.83;;;;;;;;;;5074477;28;20083;-38
2024/02/18 03:27:40;;;;;;;12.07;3.67;;;;;;;;;;5074524;28;20036;-38
2024/02/18 03:30:06;;;;;;;13.98;3.78;;;;;;;;;;5074461;28;20047;-37
2024/02/18 03:32:35;;;;;;;10.68;3.63;;;;;;;;;;5074312;28;20020;-38
2024/02/18 03:35:00;;;;;;;14.88;3.75;;;;;;;;;;5073144;28;20024;-38
2024/02/18 03:37:26;;;;;;;13.52;3.65;;;;;;;;;;5072816;28;20024;-38
2024/02/18 03:39:51;;;;;;;9.57;3.50;;;;;;;;;;5072775;28;20032;-38
2024/02/18 03:42:16;;;;;;;10.45;3.72;;;;;;;;;;5073389;28;20655;-37
2024/02/18 03:44:42;;;;;;;10.68;3.30;;;;;;;;;;5073590;28;20029;-38
2024/02/18 03:47:08;;;;;;;16.40;3.80;;;;;;;;;;5073298;28;20146;-39
2024/02/18 03:49:33;;;;;;;7.03;3.22;;;;;;;;;;5073960;28;20255;-37
2024/02/18 03:51:58;;;;;;;14.03;3.80;;;;;;;;;;5073809;28;20425;-38
2024/02/18 03:54:23;;;;;;;13.43;3.30;;;;;;;;;;5072769;28;20286;-38
2024/02/18 03:56:49;;;;;;;10.88;3.17;;;;;;;;;;5073788;28;20281;-38
2024/02/18 03:59:14;;;;;;;10.05;3.55;;;;;;;;;;5073974;28;20020;-39
2024/02/18 04:01:40;;;;;;;8.82;2.70;;;;;;;;;;5073056;28;20016;-38
2024/02/18 04:04:05;;;;;;;9.17;3.33;;;;;;;;;;5072318;28;20020;-38
2024/02/18 04:06:30;;;;;;;15.80;3.00;;;;;;;;;;5072375;28;20267;-37
2024/02/18 04:08:55;;;;;;;8.60;2.90;;;;;;;;;;5073754;28;20289;-38
2024/02/18 04:11:21;;;;;;;9.82;3.13;;;;;;;;;;5073777;28;20131;-38
2024/02/18 04:13:46;;;;;;;9.48;3.00;;;;;;;;;;5073596;28;20075;-38
2024/02/18 04:16:12;;;;;;;5.97;2.67;;;;;;;;;;5073602;28;20578;-38
2024/02/18 04:18:37;;;;;;;10.70;3.33;;;;;;;;;;5073948;28;20271;-38
2024/02/18 04:21:02;;;;;;;10.10;3.30;;;;;;;;;;5073430;28;20591;-38
2024/02/18 04:23:27;;;;;;;7.30;2.92;;;;;;;;;;5073970;28;20107;-38
2024/02/18 04:25:52;;;;;;;8.27;3.08;;;;;;;;;;5073648;28;20020;-38
2024/02/18 04:28:18;;;;;;;10.10;3.43;;;;;;;;;;5073337;28;20025;-38
2024/02/18 04:30:43;;;;;;;8.87;2.70;;;;;;;;;;5073412;28;20658;-38
2024/02/18 04:33:08;;;;;;;6.23;2.60;;;;;;;;;;5073865;28;20270;-37
2024/02/18 04:35:33;;;;;;;7.03;2.70;;;;;;;;;;5073329;28;20722;-38
2024/02/18 04:37:58;;;;;;;7.27;2.87;;;;;;;;;;5073824;28;20290;-43
2024/02/18 04:40:23;;;;;;;7.80;2.60;;;;;;;;;;5073306;28;20740;-38
2024/02/18 04:42:49;;;;;;;11.27;2.87;;;;;;;;;;5073822;28;20250;-45
2024/02/18 04:45:14;;;;;;;11.90;2.90;;;;;;;;;;5073389;28;20351;-38
2024/02/18 04:47:39;;;;;;;9.60;2.80;;;;;;;;;;5073761;28;20269;-38
2024/02/18 04:50:04;;;;;;;8.13;2.60;;;;;;;;;;5073203;28;20520;-38
2024/02/18 04:52:30;;;;;;;8.43;2.85;;;;;;;;;;5073803;28;20298;-38
2024/02/18 04:54:56;;;;;;;9.43;2.65;;;;;;;;;;5073346;28;20078;-38
2024/02/18 04:57:21;;;;;;;12.80;3.00;;;;;;;;;;5073219;28;20028;-38
2024/02/18 04:59:46;;;;;;;11.07;3.10;;;;;;;;;;5073115;28;20456;-38
2024/02/18 05:02:11;;;;;;;11.30;3.65;;;;;;;;;;5072984;28;20313;-38
2024/02/18 05:04:37;;;;;;;9.07;3.60;;;;;;;;;;5073164;28;20414;-39
2024/02/18 05:07:02;;;;;;;12.40;3.00;;;;;;;;;;5072962;28;20291;-39
2024/02/18 05:09:27;;;;;;;11.55;3.40;;;;;;;;;;5072925;28;20251;-38
2024/02/18 05:11:52;;;;;;;7.83;2.80;;;;;;;;;;5073208;28;20345;-36
2024/02/18 05:14:18;;;;;;;11.07;3.40;;;;;;;;;;5072878;28;20270;-38
2024/02/18 05:16:43;;;;;;;11.13;4.03;;;;;;;;;;5073240;28;20281;-38
2024/02/18 05:19:09;;;;;;;15.07;4.45;;;;;;;;;;5073191;28;20495;-38
2024/02/18 05:21:37;;;;;;;11.87;3.00;;;;;;;;;;5072867;28;20108;-38
2024/02/18 05:24:02;;;;;;;14.02;3.17;;;;;;;;;;5072683;28;20267;-37
2024/02/18 05:26:29;;;;;;;9.07;2.83;;;;;;;;;;5072832;28;20013;-38
2024/02/18 05:28:54;;;;;;;10.98;3.28;;;;;;;;;;5073027;28;20356;-38
2024/02/18 05:31:22;;;;;;;9.40;2.90;;;;;;;;;;5073061;28;20020;-37
2024/02/18 05:33:47;;;;;;;12.25;3.03;;;;;;;;;;5073022;28;20027;-38
2024/02/18 05:36:13;;;;;;;8.60;2.80;;;;;;;;;;5072726;28;20060;-38
2024/02/18 05:38:39;;;;;;;14.10;3.08;;;;;;;;;;5073247;28;20027;-37
2024/02/18 05:41:05;;;;;;;12.85;3.28;;;;;;;;;;5075508;28;20020;-38
2024/02/18 05:43:30;;;;;;;10.37;2.90;;;;;;;;;;5076583;28;20029;-39
2024/02/18 05:45:55;;;;;;;13.88;2.92;;;;;;;;;;5074918;28;20789;-38
2024/02/18 05:48:21;;;;;;;7.70;3.07;;;;;;;;;;5076789;28;20027;-38
2024/02/18 05:50:46;;;;;;;9.02;2.85;;;;;;;;;;5076727;28;20243;-38
2024/02/18 05:53:12;;;;;;;11.40;3.20;;;;;;;;;;5076205;28;20463;-38
2024/02/18 05:55:37;;;;;;;13.65;3.20;;;;;;;;;;5076129;28;20025;-38
2024/02/18 05:58:03;;;;;;;7.13;2.83;;;;;;;;;;5076609;28;20040;-38
2024/02/18 06:00:28;;;;;;;6.80;2.70;;;;;;;;;;5076488;28;20652;-39
2024/02/18 06:02:53;;;;;;;13.23;3.50;;;;;;;;;;5075907;28;20086;-38
2024/02/18 06:05:18;;;;;;;14.90;3.60;;;;;;;;;;5076432;28;20021;-38
2024/02/18 06:07:45;;;;;;;12.80;3.57;;;;;;;;;;5075764;28;20289;-38
2024/02/18 06:10:10;;;;;;;9.65;2.95;;;;;;;;;;5076030;28;20254;-39
2024/02/18 06:12:35;;;;;;;16.25;3.20;;;;;;;;;;5075800;28;20062;-39
2024/02/18 06:15:00;;;;;;;11.03;3.03;;;;;;;;;;5076050;28;20031;-38
2024/02/18 06:17:26;;;;;;;9.80;3.95;;;;;;;;;;5075712;28;20257;-38
2024/02/18 06:19:51;;;;;;;13.43;3.13;;;;;;;;;;5076247;28;20024;-38
2024/02/18 06:22:16;;;;;;;11.07;3.07;;;;;;;;;;5075628;28;20586;-39
2024/02/18 06:24:43;;;;;;;13.37;3.80;;;;;;;;;;5076061;28;20369;-38
2024/02/18 06:27:08;;;;;;;12.27;3.35;;;;;;;;;;5074249;28;20255;-38
2024/02/18 06:29:33;;;;;;;11.37;3.00;;;;;;;;;;5075260;28;20017;-39
2024/02/18 06:31:58;;;;;;;14.00;3.88;;;;;;;;;;5074953;28;20301;-39
2024/02/18 06:34:24;;;;;;;12.35;3.58;;;;;;;;;;5074851;28;20119;-39
2024/02/18 06:36:49;;;;;;;10.77;3.60;;;;;;;;;;5074678;28;20113;-38
2024/02/18 06:39:14;;;;;;;7.97;2.90;;;;;;;;;;5074239;28;20263;-39
2024/02/18 06:41:39;;;;;;;11.77;3.20;;;;;;;;;;5075016;28;20309;-39
2024/02/18 06:44:04;;;;;;;10.17;3.40;;;;;;;;;;5074826;28;20418;-38
2024/02/18 06:46:30;;;;;;;10.60;3.55;;;;;;;;;;5075346;28;20255;-38
2024/02/18 06:48:55;;;;;;;15.43;3.30;;;;;;;;;;5075664;28;20023;-38
2024/02/18 06:51:21;;;;;;;8.20;3.20;;;;;;;;;;5074338;28;20330;-39
2024/02/18 06:53:46;;;;;;;10.70;3.38;;;;;;;;;;5075276;28;20583;-38
2024/02/18 06:56:11;;;;;;;15.47;3.50;;;;;;;;;;5074915;28;20031;-39
2024/02/18 06:58:37;;;;;;;11.32;3.67;;;;;;;;;;5074815;28;20385;-40
2024/02/18 07:01:02;;;;;;;12.30;3.45;;;;;;;;;;5074876;28;20162;-38
2024/02/18 07:03:27;;;;;;;10.35;3.58;;;;;;;;;;5074821;28;20586;-38
2024/02/18 07:05:52;;;;;;;12.05;3.70;;;;;;;;;;5075240;28;20024;-38
2024/02/18 07:08:18;;;;;;;15.00;3.83;;;;;;;;;;5074949;28;20479;-38
2024/02/18 07:10:43;;;;;;;12.32;3.30;;;;;;;;;;5074961;28;20352;-39
2024/02/18 07:13:08;;;;;;;14.00;4.43;;;;;;;;;;5074550;28;20366;-38
2024/02/18 07:15:33;;;;;;;12.87;3.83;;;;;;;;;;5074502;28;20270;-38
2024/02/18 07:17:58;;;;;;;15.55;4.20;;;;;;;;;;5074517;28;20772;-39
2024/02/18 07:20:25;;;;;;;14.30;3.80;;;;;;;;;;5074480;28;20104;-39
2024/02/18 07:22:50;;;;;;;14.57;3.72;;;;;;;;;;5074659;28;20274;-38
2024/02/18 07:25:15;;;;;;;11.55;3.47;;;;;;;;;;5074577;28;20021;-39
2024/02/18 07:27:40;;;;;;;8.07;3.90;;;;;;;;;;5074852;28;20017;-39
2024/02/18 07:30:06;;;;;;;10.00;3.08;;;;;;;;;;5075062;28;20257;-38
2024/02/18 07:32:31;;;;;;;17.92;3.45;;;;;;;;;;5074288;28;20021;-38
2024/02/18 07:34:56;;;;;;;13.30;3.67;;;;;;;;;;5074775;28;20046;-41
2024/02/18 07:37:21;;;;;;;10.77;3.20;;;;;;;;;;5074215;28;20052;-38
2024/02/18 07:39:47;;;;;;;7.22;3.30;;;;;;;;;;5074035;28;20263;-38
2024/02/18 07:42:13;;;;;;;11.15;3.50;;;;;;;;;;5074385;28;20036;-39
2024/02/18 07:44:42;;;;;;;10.00;3.47;;;;;;;;;;5073912;28;20028;-39
2024/02/18 07:47:07;;;;;;;8.15;3.03;;;;;;;;;;5073959;28;20091;-38
2024/02/18 07:49:32;;;;;;;9.20;3.27;;;;;;;;;;5073893;28;20106;-39
2024/02/18 07:51:58;;;;;;;8.33;3.13;;;;;;;;;;5074433;28;20262;-38
2024/02/18 07:54:23;;;;;;;9.95;2.80;;;;;;;;;;5073825;28;20609;-39
2024/02/18 07:56:48;;;;;;;6.93;3.13;;;;;;;;;;5074118;28;20024;-39
2024/02/18 07:59:14;;;;;;;8.00;2.97;;;;;;;;;;5073812;28;20028;-39
2024/02/18 08:01:39;;;;;;;11.10;3.38;;;;;;;;;;5073793;28;20044;-38
2024/02/18 08:04:05;;;;;;;9.93;2.88;;;;;;;;;;5073885;28;20021;-37
2024/02/18 08:06:31;;;;;;;12.32;2.80;;;;;;;;;;5073471;28;20021;-38
2024/02/18 08:08:57;;;;;;;9.85;3.35;;;;;;;;;;5073929;28;20048;-38
2024/02/18 08:11:22;;;;;;;9.27;3.00;;;;;;;;;;5073835;28;20063;-39
2024/02/18 08:13:47;;;;;;;11.00;3.40;;;;;;;;;;5074194;28;20239;-38
2024/02/18 08:16:13;;;;;;;9.53;3.17;;;;;;;;;;5073547;28;20608;-39
2024/02/18 08:18:38;;;;;;;11.18;3.00;;;;;;;;;;5073761;28;20269;-37
2024/02/18 08:21:03;;;;;;;13.93;3.30;;;;;;;;;;5073766;28;20375;-38
2024/02/18 08:23:28;;;;;;;11.18;3.00;;;;;;;;;;5073419;28;20054;-38
2024/02/18 08:25:54;;;;;;;12.80;2.97;;;;;;;;;;5073920;28;20024;-38
2024/02/18 08:28:19;;;;;;;9.03;3.33;;;;;;;;;;5073416;28;20251;-38
2024/02/18 08:30:44;;;;;;;11.07;2.57;;;;;;;;;;5073950;28;20339;-38
2024/02/18 08:33:09;;;;;;;11.75;2.92;;;;;;;;;;5073619;28;20263;-42
2024/02/18 08:35:35;;;;;;;12.50;2.87;;;;;;;;;;5073392;28;20452;-38
2024/02/18 08:38:00;;;;;;;12.95;2.92;;;;;;;;;;5073599;28;20270;-38
2024/02/18 08:40:25;;;;;;;15.45;3.13;;;;;;;;;;5072834;28;20024;-38
2024/02/18 08:42:50;;;;;;;10.80;2.83;;;;;;;;;;5073855;28;20095;-38
2024/02/18 08:45:16;;;;;;;14.57;3.20;;;;;;;;;;5073179;28;20013;-38
2024/02/18 08:47:41;;;;;;;9.70;2.90;;;;;;;;;;5073820;28;20254;-38
2024/02/18 08:50:06;;;;;;;9.13;3.00;;;;;;;;;;5073206;28;20785;-38
2024/02/18 08:52:31;;;;;;;10.52;3.50;;;;;;;;;;5073128;28;20259;-38
2024/02/18 08:54:57;;;;;;;9.97;3.07;;;;;;;;;;5073056;28;20027;-38
2024/02/18 08:57:22;;;;;;;10.85;3.13;;;;;;;;;;5073123;28;20246;-38
2024/02/18 08:59:47;;;;;;;13.75;3.33;;;;;;;;;;5073071;28;20085;-38
2024/02/18 09:02:12;;;;;;;14.03;3.83;;;;;;;;;;5073330;28;20090;-38
2024/02/18 09:04:37;;;;;;;16.17;3.13;;;;;;;;;;5073070;28;20294;-38
2024/02/18 09:07:03;;;;;;;10.93;3.17;;;;;;;;;;5072967;28;20684;-38
2024/02/18 09:09:28;;;;;;;9.45;3.30;;;;;;;;;;5073298;28;20266;-39
2024/02/18 09:11:53;;;;;;;12.47;3.23;;;;;;;;;;5072965;28;20028;-39
2024/02/18 09:14:19;;;;;;;8.47;3.10;;;;;;;;;;5073678;28;20246;-39
2024/02/18 09:16:44;;;;;;;12.70;2.95;;;;;;;;;;5077108;28;20267;-39
2024/02/18 09:19:09;;;;;;;11.83;3.23;;;;;;;;;;5076828;28;20490;-38
2024/02/18 09:21:34;;;;;;;14.67;3.30;;;;;;;;;;5076774;28;20255;-38
2024/02/18 09:23:59;;;;;;;15.00;3.00;;;;;;;;;;5076735;28;20717;-39
2024/02/18 09:26:25;;;;;;;10.60;3.30;;;;;;;;;;5076853;28;20277;-39
2024/02/18 09:28:50;;;;;;;12.00;3.25;;;;;;;;;;5076569;28;20320;-39
2024/02/18 09:31:16;;;;;;;11.73;3.37;;;;;;;;;;5077046;28;20099;-38
2024/02/18 09:33:41;;;;;;;13.17;3.60;;;;;;;;;;5076524;28;20247;-39
2024/02/18 09:36:07;;;;;;;13.32;3.70;;;;;;;;;;5076760;28;20258;-38
2024/02/18 09:38:32;;;;;;;9.80;3.33;;;;;;;;;;5076416;28;20502;-38
2024/02/18 09:40:57;;;;;;;12.13;3.77;;;;;;;;;;5076341;28;20020;-38
2024/02/18 09:43:24;;;;;;;8.05;3.25;;;;;;;;;;5076893;28;20286;-38
2024/02/18 09:45:50;;;;;;;9.32;3.58;;;;;;;;;;5076243;28;20024;-37
2024/02/18 09:48:16;;;;;;;14.68;3.85;;;;;;;;;;5076219;28;20016;-39
2024/02/18 09:50:42;;;;;;;9.55;3.67;;;;;;;;;;5076134;28;20016;-39
2024/02/18 09:53:08;;;;;;;16.02;3.90;;;;;;;;;;5076608;28;20028;-38
2024/02/18 09:55:35;;;;;;;13.43;4.05;;;;;;;;;;5076097;28;20032;-38
2024/02/18 09:58:00;;;;;;;11.60;3.88;;;;;;;;;;5076077;28;20016;-38
2024/02/18 10:00:25;;;;;;;9.87;3.70;;;;;;;;;;5076290;28;20043;-38
2024/02/18 10:02:51;;;;;;;12.85;4.13;;;;;;;;;;5076498;28;20246;-39
2024/02/18 10:05:16;;;;;;;11.25;3.70;;;;;;;;;;5076115;28;20387;-39
2024/02/18 10:07:42;;;;;;;14.35;4.20;;;;;;;;;;5076011;28;20448;-39
2024/02/18 10:10:07;;;;;;;11.97;3.90;;;;;;;;;;5075854;28;20028;-39
2024/02/18 10:12:35;;;;;;;9.65;3.80;;;;;;;;;;5076262;28;20259;-38
2024/02/18 10:15:03;;;;;;;9.23;3.90;;;;;;;;;;5075739;28;20012;-38
2024/02/18 10:17:29;;;;;;;15.20;4.18;;;;;;;;;;5075926;28;20036;-39
2024/02/18 10:19:55;;;;;;;11.20;4.00;;;;;;;;;;5075847;28;20050;-38
2024/02/18 10:22:24;;;;;;;15.13;4.25;;;;;;;;;;5075571;28;20028;-39
2024/02/18 10:24:49;;;;;;;14.13;3.97;;;;;;;;;;5075756;28;20056;-39
2024/02/18 10:27:15;;;;;;;12.32;4.20;;;;;;;;;;5074287;28;20059;-39
2024/02/18 10:29:40;;;;;;;15.60;4.15;;;;;;;;;;5076002;28;20012;-38
2024/02/18 10:32:06;;;;;;;16.63;4.87;;;;;;;;;;5075670;28;20353;-38
2024/02/18 10:34:31;;;;;;;12.93;4.25;;;;;;;;;;5075951;28;20300;-38
2024/02/18 10:37:05;;;;;;;10.75;4.20;;;;;;;;;;5075606;28;20460;-39
2024/02/18 10:39:32;;;;;;;13.55;4.45;;;;;;;;;;5075553;28;20033;-38
2024/02/18 10:41:59;;;;;;;12.07;4.25;;;;;;;;;;5075776;28;20027;-38
2024/02/18 10:44:25;;;;;;;10.02;4.00;;;;;;;;;;5075347;28;20503;-38
2024/02/18 10:46:54;;;;;;;13.38;5.43;;;;;;;;;;5075168;28;20147;-38
2024/02/18 10:49:32;;;;;;;15.07;4.47;;;;;;;;;;5075426;28;20066;-38
2024/02/18 10:52:11;;;;;;;13.93;4.57;;;;;;;;;;5075094;28;20022;-39
2024/02/18 10:54:42;;;;;;;12.90;4.25;;;;;;;;;;5075319;28;20459;-38
2024/02/18 10:57:08;;;;;;;9.60;4.47;;;;;;;;;;5075502;28;20032;-39
2024/02/18 10:59:39;;;;;;;11.20;4.35;;;;;;;;;;5074921;28;20031;-38
2024/02/18 11:02:11;;;;;;;11.57;4.25;;;;;;;;;;5075059;28;20024;-39
2024/02/18 11:04:37;;;;;;;11.10;4.32;;;;;;;;;;5074664;28;20027;-39
2024/02/18 11:07:03;;;;;;;9.52;4.00;;;;;;;;;;5075058;28;20041;-39
2024/02/18 11:09:28;;;;;;;9.43;4.65;;;;;;;;;;5074712;28;20079;-38
2024/02/18 11:11:54;;;;;;;10.95;4.45;;;;;;;;;;5074880;28;20127;-38
2024/02/18 11:14:23;;;;;;;8.65;4.20;;;;;;;;;;5074596;28;20024;-38
2024/02/18 11:16:48;;;;;;;7.97;4.28;;;;;;;;;;5074450;28;20021;-38
2024/02/18 11:19:13;;;;;;;13.40;4.30;;;;;;;;;;5074565;28;20031;-38
2024/02/18 11:21:39;;;;;;;10.85;4.40;;;;;;;;;;5075008;28;20017;-38
2024/02/18 11:24:06;;;;;;;13.98;4.38;;;;;;;;;;5074373;28;20013;-39
2024/02/18 11:26:31;;;;;;;8.73;4.45;;;;;;;;;;5074752;28;20467;-39
2024/02/18 11:29:01;;;;;;;11.57;4.57;;;;;;;;;;5074544;28;20016;-38
2024/02/18 11:31:26;;;;;;;11.18;4.00;;;;;;;;;;5074220;28;20678;-38
2024/02/18 11:33:52;;;;;;;10.10;4.20;;;;;;;;;;5074495;28;20021;-38
2024/02/18 11:36:17;;;;;;;8.60;3.92;;;;;;;;;;5074141;28;20023;-38
2024/02/18 11:38:46;;;;;;;7.47;3.88;;;;;;;;;;5073868;28;20021;-40
2024/02/18 11:41:18;;;;;;;7.55;4.20;;;;;;;;;;5074303;28;20055;-38
2024/02/18 11:43:43;;;;;;;13.23;4.70;;;;;;;;;;5074084;28;20016;-38
2024/02/18 11:46:19;;;;;;;7.85;3.65;;;;;;;;;;5073771;28;20557;-38
2024/02/18 11:48:44;;;;;;;10.07;4.20;;;;;;;;;;5074251;28;20032;-37
2024/02/18 11:51:09;;;;;;;10.20;3.90;;;;;;;;;;5074228;28;20019;-37
2024/02/18 11:53:35;;;;;;;7.77;4.17;;;;;;;;;;5073768;28;20020;-38
2024/02/18 11:56:00;;;;;;;10.77;4.20;;;;;;;;;;5074389;28;20255;-38
2024/02/18 11:58:25;;;;;;;8.20;3.90;;;;;;;;;;5073782;28;20486;-38
2024/02/18 12:00:50;;;;;;;9.43;4.10;;;;;;;;;;5074210;28;20258;-38
2024/02/18 12:03:17;;;;;;;10.17;3.93;;;;;;;;;;5073722;28;20741;-38
2024/02/18 12:05:42;;;;;;;7.15;3.78;;;;;;;;;;5073571;28;20366;-38
2024/02/18 12:08:07;;;;;;;9.52;4.10;;;;;;;;;;5073445;28;20068;-37
2024/02/18 12:10:33;;;;;;;12.60;4.13;;;;;;;;;;5073908;28;20062;-38
2024/02/18 12:12:58;;;;;;;7.05;3.50;;;;;;;;;;5072256;28;20490;-38
2024/02/18 12:15:26;;;;;;;7.55;3.50;;;;;;;;;;5073597;28;20119;-38
2024/02/18 12:17:55;;;;;;;10.70;3.85;;;;;;;;;;5073594;28;20522;-38
2024/02/18 12:20:22;;;;;;;6.10;3.20;;;;;;;;;;5074136;28;20345;-38
2024/02/18 12:22:47;;;;;;;7.18;3.80;;;;;;;;;;5073413;28;20024;-38
2024/02/18 12:25:16;;;;;;;6.32;3.58;;;;;;;;;;5073720;28;20016;-38
2024/02/18 12:27:41;;;;;;;8.23;3.67;;;;;;;;;;5073449;28;20468;-38
2024/02/18 12:30:07;;;;;;;9.70;3.60;;;;;;;;;;5073653;28;20008;-38
2024/02/18 12:32:36;;;;;;;5.50;3.50;;;;;;;;;;5073315;28;20070;-38
2024/02/18 12:35:03;;;;;;;7.18;3.25;;;;;;;;;;5073355;28;20027;-39
2024/02/18 12:37:28;;;;;;;5.13;3.22;;;;;;;;;;5073582;28;20026;-38
2024/02/18 12:39:54;;;;;;;7.13;3.40;;;;;;;;;;5073277;28;20052;-38
2024/02/18 12:42:19;;;;;;;6.07;2.97;;;;;;;;;;5073555;28;20103;-39
2024/02/18 12:44:45;;;;;;;7.82;3.85;;;;;;;;;;5073163;28;20020;-38
2024/02/18 12:47:10;;;;;;;5.20;3.20;;;;;;;;;;5073225;28;20427;-38
2024/02/18 12:49:35;;;;;;;6.95;3.10;;;;;;;;;;5074395;28;20021;-38
2024/02/18 12:52:04;;;;;;;5.20;2.90;;;;;;;;;;5077408;28;20314;-38
2024/02/18 12:54:30;;;;;;;8.20;3.33;;;;;;;;;;5077623;28;20273;-38
2024/02/18 12:56:55;;;;;;;3.80;2.70;;;;;;;;;;5077569;28;20100;-38
2024/02/18 12:59:20;;;;;;;4.53;2.92;;;;;;;;;;5077117;28;20457;-38
2024/02/18 13:01:46;;;;;;;5.43;2.80;;;;;;;;;;5076930;28;20099;-38
2024/02/18 13:04:11;;;;;;;5.30;2.85;;;;;;;;;;5077341;28;20017;-39
2024/02/18 13:06:36;;;;;;;4.53;2.60;;;;;;;;;;5076748;28;20098;-38
2024/02/18 13:09:01;;;;;;;7.85;2.78;;;;;;;;;;5076704;28;20057;-39
2024/02/18 13:11:28;;;;;;;4.82;2.50;;;;;;;;;;5076877;28;20021;-39
2024/02/18 13:13:55;;;;;;;4.93;2.55;;;;;;;;;;5076727;28;20009;-37
2024/02/18 13:16:20;;;;;;;6.32;2.72;;;;;;;;;;5076661;28;20032;-35
2024/02/18 13:18:45;;;;;;;5.18;2.83;;;;;;;;;;5077152;28;20053;-36
2024/02/18 13:21:11;;;;;;;4.53;2.90;;;;;;;;;;5076559;28;20059;-36
2024/02/18 13:23:40;;;;;;;5.03;2.78;;;;;;;;;;5076391;28;20291;-36
2024/02/18 13:26:07;;;;;;;3.85;2.90;;;;;;;;;;5076578;28;20027;-37
2024/02/18 13:28:32;;;;;;;6.68;2.88;;;;;;;;;;5076414;28;20039;-36
2024/02/18 13:30:57;;;;;;;5.63;3.30;;;;;;;;;;5076837;28;20025;-37
2024/02/18 13:33:22;;;;;;;4.03;2.50;;;;;;;;;;5076549;28;20255;-35
2024/02/18 13:35:48;;;;;;;4.25;2.55;;;;;;;;;;5076401;28;20111;-37
2024/02/18 13:38:13;;;;;;;3.33;2.30;;;;;;;;;;5076867;28;20073;-36
2024/02/18 13:40:38;;;;;;;4.78;2.55;;;;;;;;;;5076335;28;20024;-36
2024/02/18 13:43:03;;;;;;;3.50;2.50;;;;;;;;;;5076624;28;20033;-36
2024/02/18 13:45:28;;;;;;;3.07;2.20;;;;;;;;;;5076197;28;20306;-36
2024/02/18 13:47:55;;;;;;;4.15;2.53;;;;;;;;;;5076206;28;20263;-36
2024/02/18 13:50:20;;;;;;;3.45;2.60;;;;;;;;;;5076493;28;20098;-36
2024/02/18 13:52:45;;;;;;;4.45;2.75;;;;;;;;;;5076711;28;20066;-36
2024/02/18 13:55:10;;;;;;;4.20;2.60;;;;;;;;;;5076056;28;20427;-36
2024/02/18 13:57:36;;;;;;;3.60;2.80;;;;;;;;;;5076076;28;20522;-36
2024/02/18 14:00:01;;;;;;;3.75;2.92;;;;;;;;;;5076552;28;20255;-37
2024/02/18 14:02:26;;;;;;;4.15;3.08;;;;;;;;;;5076214;28;20024;-35
2024/02/18 14:04:52;;;;;;;3.08;2.70;;;;;;;;;;5075877;28;20020;-36
2024/02/18 14:07:19;;;;;;;4.10;3.13;;;;;;;;;;5075519;28;20039;-36
2024/02/18 14:09:44;;;;;;;5.07;3.22;;;;;;;;;;5074470;28;20020;-35
2024/02/18 14:12:12;;;;;;;3.83;3.17;;;;;;;;;;5075954;28;20082;-35
2024/02/18 14:14:38;;;;;;;5.55;3.30;;;;;;;;;;5075763;28;20251;-36
2024/02/18 14:17:03;;;;;;;4.70;3.78;;;;;;;;;;5074141;28;20464;-35
2024/02/18 14:19:28;;;;;;;5.35;3.80;;;;;;;;;;5074680;28;20028;-35
2024/02/18 14:21:53;;;;;;;5.40;3.60;;;;;;;;;;5074206;28;20087;-35
2024/02/18 14:24:20;;;;;;;5.33;3.70;;;;;;;;;;5073832;28;20255;-35
2024/02/18 14:26:45;;;;;;;4.28;3.55;;;;;;;;;;5071998;28;20289;-35